createdAt,value
2018-02-10T00:01:12.124Z,92.50
2018-02-10T00:03:39.547Z,92.40
2018-02-10T00:06:06.964Z,92.50
2018-02-10T00:08:35.164Z,92.70
2018-02-10T00:11:02.632Z,92.70
2018-02-10T00:13:30.080Z,92.70
2018-02-10T00:15:57.512Z,92.90
2018-02-10T00:18:24.934Z,93.00
2018-02-10T00:20:52.379Z,93.30
2018-02-10T00:23:19.815Z,93.50
2018-02-10T00:25:47.275Z,93.50
2018-02-10T00:28:14.715Z,93.30
2018-02-10T00:30:42.140Z,93.30
2018-02-10T00:33:09.576Z,93.30
2018-02-10T00:35:37.014Z,93.60
2018-02-10T00:38:04.432Z,93.90
2018-02-10T00:40:31.851Z,94.00
2018-02-10T00:43:00.075Z,93.70
2018-02-10T00:45:27.533Z,94.00
2018-02-10T00:47:54.936Z,94.00
2018-02-10T00:50:22.370Z,94.00
2018-02-10T00:52:49.795Z,94.60
2018-02-10T00:55:17.992Z,94.20
2018-02-10T00:57:45.428Z,94.20
2018-02-10T01:00:12.856Z,94.30
2018-02-10T01:02:40.292Z,94.50
2018-02-10T01:05:07.720Z,94.50
2018-02-10T01:07:35.904Z,94.50
2018-02-10T01:10:03.337Z,94.50
2018-02-10T01:12:30.800Z,94.50
2018-02-10T01:14:58.247Z,94.30
2018-02-10T01:17:25.667Z,94.40
2018-02-10T01:19:53.099Z,94.50
2018-02-10T01:22:20.543Z,94.20
2018-02-10T01:24:47.972Z,94.10
2018-02-10T01:27:15.406Z,94.00
2018-02-10T01:29:43.608Z,93.80
2018-02-10T01:32:11.043Z,93.80
2018-02-10T01:34:38.494Z,93.80
2018-02-10T01:37:05.915Z,93.80
2018-02-10T01:39:33.352Z,93.90
2018-02-10T01:42:00.791Z,93.90
2018-02-10T01:44:28.218Z,94.10
2018-02-10T01:46:55.656Z,94.00
2018-02-10T01:49:23.855Z,94.40
2018-02-10T01:51:51.289Z,94.40
2018-02-10T01:54:18.735Z,94.50
2018-02-10T01:56:46.155Z,94.50
2018-02-10T01:59:13.587Z,94.60
2018-02-10T02:01:41.007Z,94.50
2018-02-10T02:04:08.439Z,94.40
2018-02-10T02:06:35.867Z,94.50
2018-02-10T02:09:03.305Z,94.30
2018-02-10T02:11:30.733Z,94.40
2018-02-10T02:13:58.164Z,94.60
2018-02-10T02:16:25.616Z,94.40
2018-02-10T02:18:53.044Z,94.40
2018-02-10T02:21:20.496Z,94.80
2018-02-10T02:23:47.936Z,94.60
2018-02-10T02:26:15.368Z,94.70
2018-02-10T02:28:42.923Z,95.00
2018-02-10T02:31:10.327Z,94.90
2018-02-10T02:33:37.756Z,94.60
2018-02-10T02:36:05.947Z,94.90
2018-02-10T02:38:33.375Z,94.90
2018-02-10T02:41:00.795Z,95.00
2018-02-10T02:43:29.005Z,95.10
2018-02-10T02:45:56.428Z,95.10
2018-02-10T02:48:23.856Z,94.70
2018-02-10T02:50:51.291Z,94.60
2018-02-10T02:53:19.481Z,94.90
2018-02-10T02:55:46.920Z,94.90
2018-02-10T02:58:14.340Z,95.10
2018-02-10T03:00:41.771Z,94.70
2018-02-10T03:03:09.205Z,94.60
2018-02-10T03:05:37.408Z,95.10
2018-02-10T03:08:04.823Z,95.10
2018-02-10T03:10:32.267Z,95.10
2018-02-10T03:12:59.688Z,95.20
2018-02-10T03:15:27.900Z,95.60
2018-02-10T03:17:55.354Z,95.60
2018-02-10T03:20:22.775Z,95.50
2018-02-10T03:22:50.196Z,95.50
2018-02-10T03:25:17.618Z,95.50
2018-02-10T03:27:45.820Z,95.30
2018-02-10T03:30:13.249Z,95.60
2018-02-10T03:32:40.712Z,95.60
2018-02-10T03:35:08.139Z,95.60
2018-02-10T03:37:35.594Z,95.50
2018-02-10T03:40:03.035Z,95.30
2018-02-10T03:42:30.448Z,95.70
2018-02-10T03:44:57.885Z,96.10
2018-02-10T03:47:25.299Z,96.00
2018-02-10T03:49:53.496Z,95.90
2018-02-10T03:52:20.928Z,95.90
2018-02-10T03:54:48.355Z,95.90
2018-02-10T03:57:16.533Z,95.80
2018-02-10T03:59:43.963Z,95.80
2018-02-10T04:02:11.395Z,95.50
2018-02-10T04:04:39.587Z,95.20
2018-02-10T04:07:07.006Z,95.20
2018-02-10T04:09:34.497Z,95.20
2018-02-10T04:12:01.923Z,95.50
2018-02-10T04:14:29.347Z,95.10
2018-02-10T04:16:56.772Z,94.40
2018-02-10T04:19:24.203Z,94.40
2018-02-10T04:21:52.396Z,93.80
2018-02-10T04:24:19.825Z,93.80
2018-02-10T04:26:47.247Z,93.90
2018-02-10T04:29:15.460Z,93.90
2018-02-10T04:34:17.594Z,94.30
2018-02-10T04:36:45.020Z,94.30
2018-02-10T04:39:12.439Z,94.30
2018-02-10T04:41:40.633Z,94.30
2018-02-10T04:44:08.055Z,94.30
2018-02-10T04:46:35.491Z,94.50
2018-02-10T04:49:02.924Z,94.60
2018-02-10T04:51:31.107Z,94.70
2018-02-10T04:53:58.531Z,94.70
2018-02-10T04:56:25.955Z,94.50
2018-02-10T04:58:54.150Z,94.30
2018-02-10T05:01:21.571Z,94.30
2018-02-10T05:03:49.004Z,94.40
2018-02-10T05:06:17.191Z,94.60
2018-02-10T05:08:44.616Z,94.60
2018-02-10T05:11:12.043Z,94.20
2018-02-10T05:13:39.484Z,94.30
2018-02-10T05:16:07.701Z,94.30
2018-02-10T05:18:35.143Z,94.30
2018-02-10T05:21:02.564Z,94.40
2018-02-10T05:23:29.994Z,94.70
2018-02-10T05:25:57.426Z,94.50
2018-02-10T05:28:24.851Z,94.50
2018-02-10T05:30:53.043Z,94.40
2018-02-10T05:33:20.467Z,94.40
2018-02-10T05:35:47.897Z,94.40
2018-02-10T05:38:16.089Z,93.60
2018-02-10T05:40:43.516Z,93.60
2018-02-10T05:43:10.940Z,93.70
2018-02-10T05:45:39.144Z,94.20
2018-02-10T05:48:06.574Z,94.10
2018-02-10T05:50:34.004Z,94.00
2018-02-10T05:53:01.440Z,94.20
2018-02-10T05:55:28.855Z,94.40
2018-02-10T05:57:57.060Z,94.70
2018-02-10T06:00:24.487Z,94.60
2018-02-10T06:02:51.907Z,94.40
2018-02-10T06:05:20.099Z,94.30
2018-02-10T06:07:47.525Z,94.30
2018-02-10T06:10:14.948Z,94.50
2018-02-10T06:12:43.155Z,94.10
2018-02-10T06:15:10.580Z,94.10
2018-02-10T06:17:38.012Z,93.70
2018-02-10T06:20:05.447Z,94.00
2018-02-10T06:22:32.892Z,94.00
2018-02-10T06:25:00.323Z,95.10
2018-02-10T06:27:28.520Z,94.90
2018-02-10T06:29:55.966Z,94.80
2018-02-10T06:32:23.378Z,94.10
2018-02-10T06:34:50.815Z,94.30
2018-02-10T06:37:18.224Z,93.30
2018-02-10T06:39:46.419Z,91.90
2018-02-10T06:42:13.848Z,91.80
2018-02-10T06:44:41.274Z,91.40
2018-02-10T06:47:09.456Z,91.80
2018-02-10T06:49:36.886Z,91.70
2018-02-10T06:52:05.068Z,92.50
2018-02-10T06:54:32.512Z,92.50
2018-02-10T06:56:59.943Z,93.10
2018-02-10T06:59:27.383Z,93.70
2018-02-10T07:01:54.800Z,94.00
2018-02-10T07:04:22.997Z,94.30
2018-02-10T07:06:50.463Z,94.30
2018-02-10T07:09:17.891Z,94.50
2018-02-10T07:11:45.315Z,94.40
2018-02-10T07:14:12.741Z,93.90
2018-02-10T07:16:40.172Z,93.70
2018-02-10T07:19:08.413Z,93.80
2018-02-10T07:21:35.779Z,93.70
2018-02-10T07:24:03.222Z,94.00
2018-02-10T07:26:30.644Z,94.00
2018-02-10T07:28:58.835Z,93.90
2018-02-10T07:31:26.276Z,93.90
2018-02-10T07:33:53.719Z,94.30
2018-02-10T07:36:21.127Z,93.70
2018-02-10T07:38:49.327Z,94.20
2018-02-10T07:41:16.784Z,94.20
2018-02-10T07:43:44.212Z,94.50
2018-02-10T07:46:11.674Z,95.20
2018-02-10T07:48:39.076Z,95.30
2018-02-10T07:51:06.503Z,94.90
2018-02-10T07:53:34.708Z,95.00
2018-02-10T07:56:02.873Z,94.70
2018-02-10T07:58:30.292Z,94.40
2018-02-10T08:00:57.716Z,94.30
2018-02-10T08:03:25.143Z,94.70
2018-02-10T08:05:53.344Z,95.00
2018-02-10T08:08:20.780Z,94.90
2018-02-10T08:10:48.213Z,95.10
2018-02-10T08:13:15.655Z,95.10
2018-02-10T08:15:43.072Z,94.90
2018-02-10T08:18:11.259Z,94.70
2018-02-10T08:20:38.700Z,94.80
2018-02-10T08:23:06.125Z,94.80
2018-02-10T08:25:33.556Z,95.00
2018-02-10T08:28:01.760Z,94.90
2018-02-10T08:30:29.195Z,94.90
2018-02-10T08:32:56.632Z,94.90
2018-02-10T08:35:24.098Z,94.90
2018-02-10T08:37:51.504Z,95.10
2018-02-10T08:40:18.931Z,94.70
2018-02-10T08:42:46.351Z,94.70
2018-02-10T08:45:14.612Z,95.00
2018-02-10T08:47:42.801Z,94.60
2018-02-10T08:50:10.271Z,95.00
2018-02-10T08:52:37.700Z,94.50
2018-02-10T08:55:05.124Z,94.60
2018-02-10T08:57:32.560Z,94.20
2018-02-10T08:59:59.983Z,93.50
2018-02-10T09:02:28.196Z,93.60
2018-02-10T09:04:55.624Z,93.50
2018-02-10T09:07:23.055Z,93.50
2018-02-10T09:09:50.491Z,93.50
2018-02-10T09:12:17.907Z,93.60
2018-02-10T09:14:46.100Z,93.90
2018-02-10T09:17:13.529Z,93.90
2018-02-10T09:19:40.974Z,93.60
2018-02-10T09:22:08.391Z,93.10
2018-02-10T09:24:36.591Z,92.50
2018-02-10T09:27:04.031Z,92.50
2018-02-10T09:29:31.461Z,93.00
2018-02-10T09:31:58.895Z,93.50
2018-02-10T09:34:26.316Z,93.10
2018-02-10T09:36:54.503Z,93.10
2018-02-10T09:39:21.931Z,93.10
2018-02-10T09:41:49.355Z,92.90
2018-02-10T09:44:17.544Z,93.10
2018-02-10T09:46:44.974Z,93.00
2018-02-10T09:49:12.407Z,92.60
2018-02-10T09:51:39.859Z,92.10
2018-02-10T09:54:07.284Z,92.00
2018-02-10T09:56:35.479Z,91.50
2018-02-10T09:59:02.933Z,91.50
2018-02-10T10:01:30.384Z,91.10
2018-02-10T10:03:57.804Z,90.90
2018-02-10T10:06:25.233Z,90.90
2018-02-10T10:08:52.649Z,91.20
2018-02-10T10:11:20.840Z,91.40
2018-02-10T10:13:48.272Z,91.40
2018-02-10T10:16:15.700Z,90.90
2018-02-10T10:18:43.916Z,90.90
2018-02-10T10:21:11.373Z,90.60
2018-02-10T10:23:38.776Z,90.40
2018-02-10T10:26:06.237Z,90.40
2018-02-10T10:28:33.647Z,91.10
2018-02-10T10:31:01.077Z,90.70
2018-02-10T10:33:28.513Z,89.90
2018-02-10T10:35:56.012Z,90.30
2018-02-10T10:38:23.430Z,88.40
2018-02-10T10:40:50.852Z,88.70
2018-02-10T10:43:18.300Z,87.80
2018-02-10T10:45:45.727Z,86.30
2018-02-10T10:48:13.148Z,84.80
2018-02-10T10:50:41.350Z,86.20
2018-02-10T10:53:08.759Z,86.20
2018-02-10T10:55:36.183Z,85.90
2018-02-10T10:58:04.382Z,85.20
2018-02-10T11:00:31.817Z,85.20
2018-02-10T11:02:59.255Z,86.40
2018-02-10T11:05:28.335Z,89.10
2018-02-10T11:07:55.760Z,89.10
2018-02-10T11:10:23.195Z,90.00
2018-02-10T11:12:51.392Z,90.40
2018-02-10T11:15:18.812Z,90.40
2018-02-10T11:17:46.252Z,90.00
2018-02-10T11:20:13.675Z,89.20
2018-02-10T11:22:41.879Z,89.40
2018-02-10T11:25:09.320Z,89.40
2018-02-10T11:27:36.740Z,89.80
2018-02-10T11:30:04.168Z,89.80
2018-02-10T11:32:32.382Z,88.90
2018-02-10T11:34:59.799Z,88.90
2018-02-10T11:37:27.267Z,88.50
2018-02-10T11:39:55.731Z,88.40
2018-02-10T11:42:23.155Z,87.80
2018-02-10T11:44:50.588Z,87.40
2018-02-10T11:47:18.016Z,87.60
2018-02-10T11:49:45.447Z,87.70
2018-02-10T11:52:12.899Z,87.50
2018-02-10T11:54:40.344Z,86.20
2018-02-10T11:57:07.778Z,86.00
2018-02-10T11:59:35.222Z,86.30
2018-02-10T12:02:03.408Z,86.30
2018-02-10T12:04:30.898Z,86.20
2018-02-10T12:06:59.155Z,87.40
2018-02-10T12:09:26.605Z,87.40
2018-02-10T12:11:54.800Z,86.60
2018-02-10T12:14:22.223Z,86.40
2018-02-10T12:16:49.644Z,86.60
2018-02-10T12:19:17.839Z,86.00
2018-02-10T12:21:45.271Z,85.90
2018-02-10T12:24:12.697Z,85.90
2018-02-10T12:26:40.143Z,85.40
2018-02-10T12:29:07.640Z,84.90
2018-02-10T12:31:35.064Z,85.60
2018-02-10T12:34:02.487Z,84.80
2018-02-10T12:36:29.920Z,85.00
2018-02-10T12:38:57.347Z,85.60
2018-02-10T12:41:24.780Z,85.70
2018-02-10T12:43:52.975Z,85.40
2018-02-10T12:46:20.401Z,85.20
2018-02-10T12:51:51.464Z,84.70
2018-02-10T12:54:18.898Z,85.00
2018-02-10T12:56:46.322Z,84.50
2018-02-10T12:59:13.746Z,84.30
2018-02-10T13:01:41.168Z,85.00
2018-02-10T13:04:09.387Z,84.70
2018-02-10T13:06:36.820Z,84.70
2018-02-10T13:09:04.247Z,85.10
2018-02-10T13:11:31.672Z,85.30
2018-02-10T13:13:59.103Z,85.10
2018-02-10T13:16:27.305Z,84.30
2018-02-10T13:18:54.731Z,84.20
2018-02-10T13:21:22.151Z,85.70
2018-02-10T13:23:49.576Z,84.10
2018-02-10T13:26:17.788Z,85.20
2018-02-10T13:28:45.207Z,85.20
2018-02-10T13:31:12.635Z,86.40
2018-02-10T13:33:40.124Z,86.90
2018-02-10T13:36:07.552Z,87.20
2018-02-10T13:38:34.982Z,87.70
2018-02-10T13:41:02.395Z,87.10
2018-02-10T13:43:30.608Z,88.00
2018-02-10T13:45:58.052Z,88.00
2018-02-10T13:48:37.312Z,88.10
2018-02-10T13:51:05.503Z,89.90
2018-02-10T13:53:32.938Z,89.80
2018-02-10T13:56:00.364Z,88.80
2018-02-10T13:58:27.842Z,89.70
2018-02-10T14:00:55.252Z,89.90
2018-02-10T14:03:22.679Z,90.40
2018-02-10T14:05:50.877Z,91.40
2018-02-10T14:08:18.308Z,91.40
2018-02-10T14:10:45.757Z,92.00
2018-02-10T14:13:13.729Z,92.50
2018-02-10T14:15:41.267Z,92.60
2018-02-10T14:18:08.705Z,92.60
2018-02-10T14:20:37.796Z,93.00
2018-02-10T14:23:06.482Z,93.00
2018-02-10T14:25:33.921Z,93.00
2018-02-10T14:28:01.368Z,93.20
2018-02-10T14:30:29.307Z,93.70
2018-02-10T14:32:57.923Z,93.80
2018-02-10T14:35:26.419Z,93.70
2018-02-10T14:37:54.478Z,93.50
2018-02-10T14:40:21.921Z,93.00
2018-02-10T14:42:49.364Z,93.00
2018-02-10T14:45:17.545Z,92.90
2018-02-10T14:47:44.966Z,93.00
2018-02-10T14:50:12.722Z,93.00
2018-02-10T14:52:42.070Z,93.20
2018-02-10T14:55:09.775Z,93.10
2018-02-10T14:57:37.219Z,93.00
2018-02-10T15:00:04.698Z,93.00
2018-02-10T15:02:32.183Z,92.90
2018-02-10T15:05:00.790Z,93.10
2018-02-10T15:07:28.298Z,93.00
2018-02-10T15:09:55.736Z,93.00
2018-02-10T15:12:23.209Z,92.70
2018-02-10T15:14:50.674Z,92.90
2018-02-10T15:17:18.143Z,92.60
2018-02-10T15:19:45.559Z,92.80
2018-02-10T15:22:12.995Z,92.80
2018-02-10T15:24:41.205Z,93.00
2018-02-10T15:27:08.612Z,93.00
2018-02-10T15:29:47.859Z,93.10
2018-02-10T15:32:27.199Z,93.20
2018-02-10T15:34:58.619Z,92.90
2018-02-10T15:37:26.060Z,93.30
2018-02-10T15:39:53.500Z,93.40
2018-02-10T15:42:20.912Z,93.30
2018-02-10T15:44:48.337Z,93.40
2018-02-10T15:47:16.538Z,93.50
2018-02-10T15:49:43.983Z,93.50
2018-02-10T15:52:11.399Z,93.60
2018-02-10T15:54:38.868Z,93.80
2018-02-10T15:57:06.287Z,93.70
2018-02-10T15:59:33.731Z,93.50
2018-02-10T16:02:01.160Z,93.70
2018-02-10T16:04:28.585Z,93.50
2018-02-10T16:06:56.776Z,93.40
2018-02-10T16:09:24.214Z,93.40
2018-02-10T16:11:51.644Z,93.40
2018-02-10T16:14:19.080Z,93.50
2018-02-10T16:16:46.499Z,93.40
2018-02-10T16:19:14.719Z,93.40
2018-02-10T16:21:42.141Z,93.40
2018-02-10T16:24:09.601Z,93.40
2018-02-10T16:26:37.040Z,93.50
2018-02-10T16:29:04.467Z,93.40
2018-02-10T16:31:31.890Z,93.20
2018-02-10T16:33:59.311Z,93.40
2018-02-10T16:36:26.751Z,93.30
2018-02-10T16:38:54.956Z,93.50
2018-02-10T16:41:22.383Z,93.50
2018-02-10T16:43:49.824Z,93.60
2018-02-10T16:46:17.248Z,93.50
2018-02-10T16:48:44.671Z,93.50
2018-02-10T16:51:12.863Z,93.20
2018-02-10T16:53:40.287Z,93.10
2018-02-10T16:56:08.504Z,93.40
2018-02-10T16:58:35.927Z,93.30
2018-02-10T17:01:03.360Z,93.30
2018-02-10T17:03:30.802Z,93.40
2018-02-10T17:05:58.239Z,93.60
2018-02-10T17:08:25.683Z,93.40
2018-02-10T17:10:53.112Z,93.50
2018-02-10T17:13:20.544Z,93.60
2018-02-10T17:15:47.992Z,93.40
2018-02-10T17:18:15.424Z,93.60
2018-02-10T17:20:42.876Z,93.50
2018-02-10T17:23:10.304Z,93.40
2018-02-10T17:25:37.756Z,93.00
2018-02-10T17:28:05.937Z,92.80
2018-02-10T17:30:33.368Z,92.80
2018-02-10T17:33:00.795Z,92.70
2018-02-10T17:35:28.235Z,92.70
2018-02-10T17:37:55.695Z,92.50
2018-02-10T17:40:23.124Z,92.40
2018-02-10T17:42:50.547Z,92.40
2018-02-10T17:45:18.752Z,92.50
2018-02-10T17:47:46.867Z,92.40
2018-02-10T17:50:15.075Z,92.40
2018-02-10T17:52:42.497Z,92.40
2018-02-10T17:55:09.931Z,92.50
2018-02-10T17:57:37.356Z,92.70
2018-02-10T18:00:05.560Z,92.40
2018-02-10T18:02:32.996Z,92.40
2018-02-10T18:05:00.431Z,92.30
2018-02-10T18:07:27.858Z,92.30
2018-02-10T18:09:55.275Z,92.40
2018-02-10T18:12:23.510Z,92.30
2018-02-10T18:14:51.704Z,92.40
2018-02-10T18:17:19.125Z,92.40
2018-02-10T18:19:47.315Z,92.30
2018-02-10T18:22:14.748Z,92.30
2018-02-10T18:24:42.216Z,92.40
2018-02-10T18:27:09.611Z,92.30
2018-02-10T18:29:37.798Z,92.40
2018-02-10T18:32:05.224Z,92.40
2018-02-10T18:34:32.651Z,92.50
2018-02-10T18:37:00.848Z,92.40
2018-02-10T18:39:28.280Z,92.30
2018-02-10T18:41:55.708Z,92.20
2018-02-10T18:44:23.925Z,92.20
2018-02-10T18:46:51.359Z,92.20
2018-02-10T18:49:18.788Z,91.90
2018-02-10T18:51:46.211Z,92.00
2018-02-10T18:54:13.642Z,91.50
2018-02-10T18:56:41.075Z,91.80
2018-02-10T18:59:09.279Z,91.60
2018-02-10T19:01:36.734Z,91.60
2018-02-10T19:04:04.176Z,91.40
2018-02-10T19:06:31.708Z,91.60
2018-02-10T19:08:59.139Z,91.50
2018-02-10T19:11:26.580Z,91.60
2018-02-10T19:13:54.011Z,91.50
2018-02-10T19:16:21.442Z,91.50
2018-02-10T19:18:48.854Z,91.80
2018-02-10T19:21:17.064Z,91.60
2018-02-10T19:23:44.483Z,91.60
2018-02-10T19:26:11.956Z,91.40
2018-02-10T19:28:39.388Z,90.80
2018-02-10T19:31:06.814Z,90.90
2018-02-10T19:33:34.307Z,91.50
2018-02-10T19:36:01.719Z,91.60
2018-02-10T19:38:29.157Z,91.50
2018-02-10T19:40:56.599Z,91.50
2018-02-10T19:43:24.037Z,91.30
2018-02-10T19:45:51.468Z,91.40
2018-02-10T19:48:18.897Z,90.70
2018-02-10T19:50:46.336Z,90.80
2018-02-10T19:53:13.771Z,90.70
2018-02-10T19:55:41.948Z,90.90
2018-02-10T19:58:09.396Z,90.80
2018-02-10T20:00:36.828Z,91.30
2018-02-10T20:03:04.279Z,91.10
2018-02-10T20:05:31.711Z,91.00
2018-02-10T20:07:59.140Z,91.20
2018-02-10T20:10:26.587Z,91.10
2018-02-10T20:12:54.007Z,91.00
2018-02-10T20:15:22.193Z,90.50
2018-02-10T20:17:49.620Z,90.20
2018-02-10T20:20:17.051Z,90.30
2018-02-10T20:22:45.252Z,89.70
2018-02-10T20:25:12.685Z,89.70
2018-02-10T20:27:40.112Z,89.60
2018-02-10T20:30:07.547Z,89.00
2018-02-10T20:32:34.964Z,89.50
2018-02-10T20:35:03.160Z,88.70
2018-02-10T20:37:30.621Z,88.70
2018-02-10T20:39:58.044Z,88.40
2018-02-10T20:42:25.516Z,89.30
2018-02-10T20:44:52.960Z,88.90
2018-02-10T20:47:20.387Z,89.60
2018-02-10T20:49:47.819Z,89.20
2018-02-10T20:52:15.236Z,88.40
2018-02-10T20:54:42.669Z,88.00
2018-02-10T20:57:10.860Z,87.90
2018-02-10T20:59:38.283Z,87.90
2018-02-10T21:02:05.712Z,87.90
2018-02-10T21:04:33.152Z,88.50
2018-02-10T21:07:01.343Z,89.20
2018-02-10T21:09:28.773Z,89.10
2018-02-10T21:11:56.203Z,88.10
2018-02-10T21:14:23.655Z,88.00
2018-02-10T21:16:51.077Z,88.50
2018-02-10T21:19:19.267Z,88.10
2018-02-10T21:21:46.700Z,88.10
2018-02-10T21:24:14.123Z,87.40
2018-02-10T21:26:41.558Z,87.80
2018-02-10T21:29:09.782Z,89.20
2018-02-10T21:31:37.207Z,89.30
2018-02-10T21:34:04.660Z,88.20
2018-02-10T21:36:32.094Z,87.90
2018-02-10T21:38:59.513Z,88.80
2018-02-10T21:41:26.962Z,88.00
2018-02-10T21:43:54.421Z,88.00
2018-02-10T21:46:21.856Z,87.50
2018-02-10T21:48:49.274Z,88.80
2018-02-10T21:51:16.696Z,87.80
2018-02-10T21:53:44.116Z,87.80
2018-02-10T21:56:11.628Z,89.00
2018-02-10T21:58:39.059Z,89.60
2018-02-10T22:01:06.504Z,88.80
2018-02-10T22:03:33.936Z,88.10
2018-02-10T22:06:01.400Z,88.20
2018-02-10T22:08:28.827Z,88.40
2018-02-10T22:10:56.301Z,88.80
2018-02-10T22:13:23.726Z,88.90
2018-02-10T22:15:51.140Z,89.10
2018-02-10T22:18:18.572Z,89.60
2018-02-10T22:20:46.016Z,89.90
2018-02-10T22:23:13.443Z,90.10
2018-02-10T22:25:40.867Z,90.20
2018-02-10T22:28:09.068Z,90.30
2018-02-10T22:30:36.487Z,90.30
2018-02-10T22:33:03.914Z,90.70
2018-02-10T22:35:32.142Z,90.60
2018-02-10T22:37:59.564Z,90.60
2018-02-10T22:40:26.989Z,90.90
2018-02-10T22:42:54.405Z,90.70
2018-02-10T22:45:21.831Z,90.80
2018-02-10T22:47:50.028Z,90.90
2018-02-10T22:50:17.444Z,90.90
2018-02-10T22:52:44.875Z,91.00
2018-02-10T22:55:13.061Z,91.50
2018-02-10T22:57:40.491Z,91.10
2018-02-10T23:00:08.671Z,91.50
2018-02-10T23:02:36.091Z,91.50
2018-02-10T23:05:03.516Z,91.00
2018-02-10T23:07:31.707Z,91.20
2018-02-10T23:09:59.155Z,91.20
2018-02-10T23:12:26.572Z,90.70
2018-02-10T23:14:53.987Z,90.70
2018-02-10T23:17:21.432Z,90.10
2018-02-10T23:19:48.851Z,90.00
2018-02-10T23:22:16.375Z,90.30
2018-02-10T23:24:43.784Z,90.50
2018-02-10T23:27:11.222Z,90.40
2018-02-10T23:29:39.412Z,90.50
2018-02-10T23:32:06.835Z,90.50
2018-02-10T23:34:34.315Z,90.40
2018-02-10T23:37:01.737Z,89.80
2018-02-10T23:39:29.143Z,89.70
2018-02-10T23:41:56.573Z,89.40
2018-02-10T23:44:24.772Z,90.20
2018-02-10T23:46:52.182Z,90.20
2018-02-10T23:49:20.378Z,90.20
2018-02-10T23:51:47.807Z,90.20
2018-02-10T23:54:15.223Z,90.10
2018-02-10T23:56:43.728Z,90.50
2018-02-10T23:59:11.155Z,90.50
